Time;durP1;ratioP1;P1;durP2;ratioP2;P2;SDS_P1;SDS_P2;PMS_P1;PMS_P2;Temp;Humidity;BMP_temperature;BMP_pressure;BME280_temperature;BME280_humidity;BME280_pressure;Samples;Min_cycle;Max_cycle;Signal;HPM_P1;HPM_P2
2022/05/17 00:00:36;;;;;;;3.03;2.40;;;;;;;19.30;68.00;99228.88;4972518;28;43182;-77
2022/05/17 00:03:05;;;;;;;2.50;2.30;;;;;;;19.28;67.86;99223.69;4955433;28;40709;-75
2022/05/17 00:05:32;;;;;;;4.50;3.07;;;;;;;19.24;68.17;99216.03;4955305;28;41778;-80
2022/05/17 00:08:00;;;;;;;3.10;2.80;;;;;;;19.25;68.01;99223.09;4973706;28;42979;-76
2022/05/17 00:10:29;;;;;;;3.47;3.17;;;;;;;19.24;68.02;99222.25;4972367;28;42651;-75
2022/05/17 00:12:56;;;;;;;3.30;2.77;;;;;;;19.04;67.84;99198.25;4972719;28;39940;-77
2022/05/17 00:15:24;;;;;;;3.20;2.90;;;;;;;19.25;67.60;99231.16;4955620;28;41044;-76
2022/05/17 00:17:54;;;;;;;3.70;3.00;;;;;;;19.24;67.51;99227.63;4972481;28;42776;-76
2022/05/17 00:20:25;;;;;;;4.03;2.87;;;;;;;19.21;67.47;99229.72;4972633;28;42176;-75
2022/05/17 00:22:53;;;;;;;4.83;3.53;;;;;;;19.18;67.22;99238.06;4972724;28;40771;-77
2022/05/17 00:25:23;;;;;;;3.50;3.20;;;;;;;19.10;67.51;99230.72;4955211;28;40998;-76
2022/05/17 00:27:50;;;;;;;6.23;2.87;;;;;;;18.96;67.58;99220.41;4972193;28;44591;-76
2022/05/17 00:30:19;;;;;;;3.27;2.60;;;;;;;18.95;67.55;99235.66;4954358;28;42435;-77
2022/05/17 00:32:46;;;;;;;3.13;2.60;;;;;;;18.85;67.31;99237.47;4971359;28;40792;-76
2022/05/17 00:35:14;;;;;;;3.70;3.40;;;;;;;18.75;67.68;99241.97;4970942;28;41757;-76
2022/05/17 00:37:43;;;;;;;3.87;3.53;;;;;;;18.64;67.59;99231.38;4955107;28;42722;-77
2022/05/17 00:40:12;;;;;;;2.90;2.70;;;;;;;18.54;67.58;99233.16;4971891;28;43034;-77
2022/05/17 00:42:39;;;;;;;4.23;3.10;;;;;;;18.45;67.81;99229.44;4971094;28;40950;-75
2022/05/17 00:45:09;;;;;;;3.50;2.90;;;;;;;18.33;67.87;99221.63;4954347;28;40684;-77
2022/05/17 00:47:42;;;;;;;3.40;2.97;;;;;;;18.23;68.15;99210.88;4971086;28;42620;-76
2022/05/17 00:50:14;;;;;;;4.30;2.83;;;;;;;18.23;68.31;99230.50;4970496;28;41221;-76
2022/05/17 00:52:48;;;;;;;2.97;2.70;;;;;;;18.19;68.27;99233.56;4968304;28;40781;-76
2022/05/17 00:55:20;;;;;;;3.67;3.27;;;;;;;18.12;68.94;99227.91;4970467;28;42570;-77
2022/05/17 00:57:54;;;;;;;4.30;3.90;;;;;;;18.09;69.76;99228.16;4954756;28;42065;-76
2022/05/17 01:00:22;;;;;;;4.43;3.40;;;;;;;17.98;69.12;99220.22;4969907;28;42253;-76
2022/05/17 01:02:54;;;;;;;4.77;3.67;;;;;;;17.99;69.31;99227.28;4954930;28;40505;-76
2022/05/17 01:05:25;;;;;;;3.43;3.13;;;;;;;17.75;69.39;99203.47;4954579;28;42000;-76
2022/05/17 01:07:57;;;;;;;3.43;3.13;;;;;;;17.87;69.38;99223.00;4969097;28;42853;-75
2022/05/17 01:10:27;;;;;;;3.60;3.20;;;;;;;17.86;69.61;99238.22;4969681;28;42858;-77
2022/05/17 01:15:40;;;;;;;4.83;3.73;;;;;;;17.74;70.57;99233.91;4968997;28;41762;-75
2022/05/17 01:18:09;;;;;;;4.47;3.17;;;;;;;17.69;70.53;99235.28;4970774;28;42547;-76
2022/05/17 01:20:38;;;;;;;3.43;2.87;;;;;;;17.62;70.15;99234.09;4954884;28;41056;-76
2022/05/17 01:23:07;;;;;;;4.87;3.80;;;;;;;17.55;70.19;99231.94;4955354;28;38846;-76
2022/05/17 01:25:35;;;;;;;3.20;2.90;;;;;;;17.53;70.15;99236.56;4972097;28;41943;-77
2022/05/17 01:28:08;;;;;;;4.10;3.67;;;;;;;17.49;69.94;99236.97;4955439;28;41703;-76
2022/05/17 01:30:37;;;;;;;5.73;3.63;;;;;;;17.43;70.10;99230.28;4955674;28;41189;-75
2022/05/17 01:33:05;;;;;;;3.27;2.97;;;;;;;17.38;70.19;99237.88;4958748;28;38903;-77
2022/05/17 01:35:32;;;;;;;3.43;3.13;;;;;;;17.34;70.30;99236.41;4975821;28;42561;-76
2022/05/17 01:38:00;;;;;;;3.73;2.90;;;;;;;17.30;70.06;99237.69;4975088;28;43655;-77
2022/05/17 01:40:29;;;;;;;4.87;3.70;;;;;;;17.14;70.60;99218.53;4974648;28;42970;-75
2022/05/17 01:42:56;;;;;;;4.57;3.37;;;;;;;17.20;70.30;99234.03;4974445;28;38891;-76
2022/05/17 01:45:24;;;;;;;3.67;3.37;;;;;;;17.16;70.24;99240.66;4956302;28;41203;-75
2022/05/17 01:47:52;;;;;;;4.07;2.87;;;;;;;17.11;70.21;99245.53;4957522;28;41259;-78
2022/05/17 01:50:19;;;;;;;3.97;2.80;;;;;;;17.06;70.14;99245.06;4957048;28;42275;-77
2022/05/17 01:52:48;;;;;;;2.90;2.70;;;;;;;17.02;70.19;99254.31;4957384;28;39594;-77
2022/05/17 01:55:16;;;;;;;4.80;3.53;;;;;;;16.92;70.32;99242.69;4973480;28;41480;-76
2022/05/17 01:57:46;;;;;;;3.77;3.47;;;;;;;16.90;70.34;99247.31;4973959;28;42840;-77
2022/05/17 02:00:16;;;;;;;4.13;3.50;;;;;;;16.84;70.36;99245.97;4973120;28;43047;-75
2022/05/17 02:02:44;;;;;;;4.03;3.17;;;;;;;16.72;70.84;99229.09;4973449;28;41879;-75
2022/05/17 02:05:12;;;;;;;3.90;3.50;;;;;;;16.68;71.33;99233.03;4957095;28;42206;-77
2022/05/17 02:07:39;;;;;;;3.57;3.27;;;;;;;16.72;71.13;99250.50;4973604;28;43521;-76
2022/05/17 02:10:08;;;;;;;3.33;3.03;;;;;;;16.67;70.68;99257.22;4958053;28;44054;-75
2022/05/17 02:12:36;;;;;;;3.37;3.07;;;;;;;16.63;71.34;99255.75;4974505;28;40418;-76
2022/05/17 02:15:07;;;;;;;5.87;3.33;;;;;;;16.54;71.33;99257.31;4975219;28;41735;-76
2022/05/17 02:17:35;;;;;;;6.37;3.13;;;;;;;16.43;71.43;99241.31;4971406;28;42586;-78
2022/05/17 02:20:03;;;;;;;3.30;3.00;;;;;;;16.46;71.43;99254.41;4973963;28;41163;-76
2022/05/17 02:22:30;;;;;;;4.90;3.10;;;;;;;16.42;71.57;99264.50;4975723;28;40766;-75
2022/05/17 02:24:58;;;;;;;3.57;3.27;;;;;;;16.39;71.44;99262.06;4957370;28;41011;-75
2022/05/17 02:27:26;;;;;;;5.47;4.13;;;;;;;16.35;72.02;99265.09;4973827;28;42696;-75
2022/05/17 02:29:53;;;;;;;4.63;4.23;;;;;;;16.31;72.13;99261.84;4974835;28;42363;-77
2022/05/17 02:32:22;;;;;;;4.27;3.20;;;;;;;16.28;71.60;99264.75;4974327;28;41034;-75
2022/05/17 02:34:50;;;;;;;4.50;3.70;;;;;;;16.20;71.89;99264.50;4957515;28;41850;-77
2022/05/17 02:37:18;;;;;;;3.27;2.97;;;;;;;16.21;71.96;99276.03;4957029;28;41926;-75
2022/05/17 02:39:46;;;;;;;3.70;3.40;;;;;;;16.17;72.38;99270.94;4971968;28;42200;-75
2022/05/17 02:42:13;;;;;;;4.63;3.30;;;;;;;16.14;72.52;99268.50;4972622;28;39935;-76
2022/05/17 02:44:41;;;;;;;4.43;4.03;;;;;;;16.12;73.03;99267.78;4972790;28;41816;-76
2022/05/17 02:47:10;;;;;;;4.23;3.83;;;;;;;16.09;72.94;99262.66;4973808;28;43718;-77
2022/05/17 02:49:40;;;;;;;4.17;3.77;;;;;;;16.03;73.09;99263.16;4956293;28;42463;-75
2022/05/17 02:52:08;;;;;;;4.67;3.23;;;;;;;16.03;73.00;99273.84;4972479;28;42949;-76
2022/05/17 02:54:36;;;;;;;3.70;3.30;;;;;;;16.02;72.98;99284.66;4956421;28;41095;-75
2022/05/17 02:57:04;;;;;;;3.33;3.00;;;;;;;16.00;72.96;99284.78;4956026;28;42050;-76
2022/05/17 02:59:32;;;;;;;4.27;3.83;;;;;;;15.98;73.13;99278.69;4955996;28;44605;-75
2022/05/17 03:02:00;;;;;;;4.13;3.60;;;;;;;15.96;73.81;99277.94;4974126;28;40903;-76
2022/05/17 03:04:28;;;;;;;5.97;3.50;;;;;;;15.95;73.34;99278.09;4977498;28;40665;-77
2022/05/17 03:06:59;;;;;;;4.30;3.90;;;;;;;15.93;73.93;99280.88;4978386;28;42423;-75
2022/05/17 03:09:27;;;;;;;5.10;3.37;;;;;;;15.89;73.92;99282.09;4978605;28;41344;-75
2022/05/17 03:11:54;;;;;;;3.93;3.53;;;;;;;15.89;74.10;99287.44;4978152;28;40356;-76
2022/05/17 03:14:23;;;;;;;3.30;2.83;;;;;;;15.86;73.66;99279.66;4961842;28;43454;-76
2022/05/17 03:16:50;;;;;;;4.70;3.80;;;;;;;15.86;73.64;99286.81;4962573;28;42782;-77
2022/05/17 03:19:19;;;;;;;4.30;3.90;;;;;;;15.81;73.82;99289.84;4974481;28;42482;-75
2022/05/17 03:21:48;;;;;;;5.17;4.63;;;;;;;15.70;73.72;99273.81;4972778;28;41073;-74
2022/05/17 03:24:17;;;;;;;4.23;3.40;;;;;;;15.79;73.67;99291.78;4973487;28;41763;-75
2022/05/17 03:26:45;;;;;;;3.90;3.03;;;;;;;15.78;73.61;99287.41;4972705;28;42946;-76
2022/05/17 03:29:13;;;;;;;3.63;3.30;;;;;;;15.76;73.60;99289.34;4973223;28;42410;-75
2022/05/17 03:31:40;;;;;;;3.80;3.40;;;;;;;15.75;73.98;99295.66;4971751;28;39985;-76
2022/05/17 03:34:10;;;;;;;5.10;4.13;;;;;;;15.72;73.90;99288.72;4971387;28;40641;-76
2022/05/17 03:36:37;;;;;;;5.53;4.13;;;;;;;15.74;73.93;99299.28;4973042;28;42749;-76
2022/05/17 03:39:05;;;;;;;4.43;3.37;;;;;;;15.74;73.89;99304.63;4971533;28;41352;-76
2022/05/17 03:41:34;;;;;;;5.33;3.30;;;;;;;15.72;74.30;99306.56;4971586;28;41086;-75
2022/05/17 03:44:02;;;;;;;7.30;4.23;;;;;;;15.72;74.25;99306.56;4971840;28;41708;-76
2022/05/17 03:46:29;;;;;;;4.67;4.17;;;;;;;15.64;74.27;99290.28;4973085;28;42690;-77
2022/05/17 03:48:57;;;;;;;5.07;3.97;;;;;;;15.72;74.08;99301.22;4955497;28;42615;-76
2022/05/17 03:51:25;;;;;;;4.30;3.90;;;;;;;15.73;73.99;99300.25;4972795;28;39974;-77
2022/05/17 03:53:53;;;;;;;3.80;3.50;;;;;;;15.73;73.83;99305.59;4971402;28;41735;-75
2022/05/17 03:56:21;;;;;;;4.67;3.20;;;;;;;15.69;73.64;99306.81;4955058;28;42642;-76
2022/05/17 03:58:50;;;;;;;4.17;3.77;;;;;;;15.63;73.87;99305.44;4971481;28;41184;-77
2022/05/17 04:01:18;;;;;;;4.03;3.63;;;;;;;15.72;73.61;99314.56;4955115;28;40443;-76
2022/05/17 04:03:45;;;;;;;5.23;3.70;;;;;;;15.58;73.31;99291.59;4971486;28;41808;-76
2022/05/17 04:06:13;;;;;;;3.40;3.03;;;;;;;15.74;73.34;99315.31;4971216;28;42700;-76
2022/05/17 04:08:40;;;;;;;3.67;3.23;;;;;;;15.73;73.45;99318.94;4955285;28;43591;-76
2022/05/17 04:11:10;;;;;;;3.53;3.17;;;;;;;15.76;73.19;99319.56;4971216;28;40671;-76
2022/05/17 04:13:37;;;;;;;3.50;3.20;;;;;;;15.78;73.08;99322.13;4955178;28;41909;-76
2022/05/17 04:16:07;;;;;;;5.13;3.40;;;;;;;15.78;73.29;99312.28;4972288;28;43745;-76
2022/05/17 04:18:34;;;;;;;4.20;3.00;;;;;;;15.87;72.98;99324.09;4972551;28;42503;-76
2022/05/17 04:21:04;;;;;;;5.17;3.87;;;;;;;15.92;72.93;99329.94;4954858;28;39023;-75
2022/05/17 04:23:32;;;;;;;4.13;3.67;;;;;;;15.98;73.01;99331.25;4955254;28;42770;-75
2022/05/17 04:26:00;;;;;;;4.37;3.30;;;;;;;16.01;72.74;99331.03;4972768;28;43000;-75
2022/05/17 04:28:28;;;;;;;4.00;3.60;;;;;;;16.04;72.63;99325.47;4971947;28;43239;-76
2022/05/17 04:30:56;;;;;;;4.67;4.20;;;;;;;16.09;73.08;99331.28;4971692;28;40215;-75
2022/05/17 04:33:25;;;;;;;6.73;4.40;;;;;;;16.09;72.78;99321.44;4955785;28;40059;-75
2022/05/17 04:35:53;;;;;;;4.73;3.47;;;;;;;16.25;72.67;99341.66;4971700;28;42937;-76
2022/05/17 04:38:21;;;;;;;4.10;3.20;;;;;;;16.31;72.30;99342.03;4955781;28;41185;-75
2022/05/17 04:40:49;;;;;;;5.03;3.60;;;;;;;16.36;72.24;99345.19;4971762;28;40635;-75
2022/05/17 04:43:17;;;;;;;4.47;3.80;;;;;;;16.43;72.19;99358.94;4955654;28;41318;-76
2022/05/17 04:45:45;;;;;;;4.60;4.20;;;;;;;16.51;71.80;99356.50;4971845;28;43582;-76
2022/05/17 04:48:13;;;;;;;3.77;3.20;;;;;;;16.58;72.00;99355.03;4955733;28;42223;-76
2022/05/17 04:50:42;;;;;;;6.03;4.60;;;;;;;16.58;72.14;99333.63;4971405;28;38931;-76
2022/05/17 04:53:10;;;;;;;4.13;3.73;;;;;;;16.78;71.81;99351.66;4971381;28;42775;-76
2022/05/17 04:55:38;;;;;;;4.50;3.97;;;;;;;16.88;71.95;99359.78;4970313;28;42715;-76
2022/05/17 04:58:05;;;;;;;6.30;4.57;;;;;;;16.99;71.89;99362.44;4954818;28;41899;-76
2022/05/17 05:00:33;;;;;;;5.70;4.27;;;;;;;17.07;71.86;99357.31;4954424;28;38613;-76
2022/05/17 05:03:01;;;;;;;6.47;4.77;;;;;;;17.18;71.92;99359.16;4954438;28;40784;-77
2022/05/17 05:05:30;;;;;;;5.20;4.60;;;;;;;17.29;71.72;99367.16;4953317;28;41820;-76
2022/05/17 05:07:59;;;;;;;6.07;4.50;;;;;;;17.40;71.77;99364.44;4971559;28;42594;-76
2022/05/17 05:10:27;;;;;;;4.40;4.00;;;;;;;17.48;71.33;99361.97;4971581;28;39310;-76
2022/05/17 05:12:55;;;;;;;5.00;3.70;;;;;;;17.60;71.14;99371.66;4955386;28;42425;-75
2022/05/17 05:15:23;;;;;;;4.20;3.80;;;;;;;17.66;70.76;99367.66;4954902;28;42764;-76
2022/05/17 05:17:50;;;;;;;4.10;3.80;;;;;;;17.79;70.90;99368.34;4955154;28;42644;-76
2022/05/17 05:20:18;;;;;;;6.03;4.50;;;;;;;17.83;70.87;99355.50;4971307;28;40967;-77
2022/05/17 05:22:46;;;;;;;4.43;4.03;;;;;;;18.01;70.67;99375.41;4972599;28;42396;-75
2022/05/17 05:25:17;;;;;;;4.57;4.13;;;;;;;18.12;70.59;99377.19;4954685;28;42217;-74
2022/05/17 05:27:45;;;;;;;6.13;5.20;;;;;;;18.21;70.77;99377.22;4971451;28;41947;-75
2022/05/17 05:30:16;;;;;;;4.93;4.43;;;;;;;18.31;70.07;99372.78;4971192;28;40675;-75
2022/05/17 05:32:43;;;;;;;4.40;4.00;;;;;;;18.40;70.41;99375.66;4971398;28;40629;-76
2022/05/17 05:35:11;;;;;;;6.27;5.17;;;;;;;18.46;70.05;99375.13;4971339;28;42732;-77
2022/05/17 05:37:39;;;;;;;6.53;4.87;;;;;;;18.64;70.02;99384.28;4969898;28;43231;-77
2022/05/17 05:40:09;;;;;;;5.57;4.90;;;;;;;18.77;69.89;99384.91;4954152;28;40212;-77
2022/05/17 05:42:40;;;;;;;7.47;5.23;;;;;;;18.81;70.10;99380.97;4971045;28;41848;-77
2022/05/17 05:45:10;;;;;;;6.07;5.10;;;;;;;18.95;69.92;99385.97;4969886;28;44323;-77
2022/05/17 05:47:38;;;;;;;5.40;4.87;;;;;;;19.08;69.88;99390.25;4953559;28;42151;-77
2022/05/17 05:50:07;;;;;;;4.90;4.03;;;;;;;19.21;69.46;99393.53;4969959;28;39301;-77
2022/05/17 05:52:35;;;;;;;8.17;5.03;;;;;;;19.38;68.99;99390.19;4954051;28;41694;-76
2022/05/17 05:55:03;;;;;;;5.10;4.37;;;;;;;19.54;68.65;99395.03;4970083;28;42826;-77
2022/05/17 05:57:31;;;;;;;5.47;4.73;;;;;;;19.68;68.99;99386.56;4970178;28;42644;-75
2022/05/17 06:00:01;;;;;;;5.93;5.17;;;;;;;19.85;68.18;99393.09;4948288;28;39158;-77
2022/05/17 06:02:28;;;;;;;5.27;4.60;;;;;;;20.03;67.60;99391.38;4952244;28;43893;-71
2022/05/17 06:04:56;;;;;;;5.50;4.93;;;;;;;20.18;67.23;99395.34;4972642;28;43832;-79
2022/05/17 06:07:23;;;;;;;6.20;4.80;;;;;;;20.30;66.92;99399.56;4972975;28;42108;-75
2022/05/17 06:09:51;;;;;;;6.77;4.00;;;;;;;20.41;66.59;99391.34;4988339;28;40576;-78
2022/05/17 06:12:19;;;;;;;5.07;4.50;;;;;;;20.52;65.97;99395.75;4954675;28;41067;-76
2022/05/17 06:14:47;;;;;;;6.17;4.50;;;;;;;20.64;66.11;99391.03;4971000;28;42707;-77
2022/05/17 06:17:17;;;;;;;4.13;3.60;;;;;;;20.74;65.76;99391.84;4991334;28;40963;-78
2022/05/17 06:19:44;;;;;;;5.07;4.40;;;;;;;20.89;65.38;99398.44;4993295;28;39891;-75
2022/05/17 06:22:13;;;;;;;4.77;4.00;;;;;;;21.06;64.37;99403.03;4976848;28;41932;-73
2022/05/17 06:24:40;;;;;;;5.80;4.40;;;;;;;21.17;63.78;99401.97;4993664;28;43627;-73
2022/05/17 06:27:08;;;;;;;5.70;5.10;;;;;;;21.25;63.33;99395.91;4991172;28;42175;-72
2022/05/17 06:29:35;;;;;;;5.67;4.60;;;;;;;21.35;63.54;99402.91;4976416;28;38826;-77
2022/05/17 06:32:03;;;;;;;8.20;5.23;;;;;;;21.45;62.56;99408.25;4992149;28;42776;-72
2022/05/17 06:34:33;;;;;;;6.57;5.20;;;;;;;21.47;62.32;99411.63;4993339;28;42769;-73
2022/05/17 06:37:00;;;;;;;5.00;4.40;;;;;;;21.59;62.50;99410.44;4975195;28;42946;-75
2022/05/17 06:39:28;;;;;;;4.23;3.83;;;;;;;21.68;62.53;99409.50;4975663;28;41340;-75
2022/05/17 06:41:56;;;;;;;4.77;4.30;;;;;;;21.81;61.58;99415.38;4991403;28;41892;-74
2022/05/17 06:44:25;;;;;;;5.60;4.50;;;;;;;22.08;61.01;99416.31;4992679;28;43760;-74
2022/05/17 06:46:54;;;;;;;6.10;4.00;;;;;;;22.37;60.64;99411.50;4993200;28;42350;-76
2022/05/17 06:49:22;;;;;;;6.33;4.07;;;;;;;22.73;60.19;99414.97;4992372;28;39752;-74
2022/05/17 06:51:51;;;;;;;6.33;4.20;;;;;;;22.99;59.35;99417.69;4975053;28;41748;-75
2022/05/17 06:54:18;;;;;;;5.10;4.00;;;;;;;23.16;58.62;99424.84;4992332;28;42721;-72
2022/05/17 06:56:46;;;;;;;4.53;3.43;;;;;;;23.36;58.48;99424.59;4990817;28;42466;-75
2022/05/17 06:59:14;;;;;;;5.10;3.93;;;;;;;23.66;57.75;99426.72;4977687;28;39839;-78
2022/05/17 07:01:45;;;;;;;5.17;3.93;;;;;;;23.98;56.02;99432.19;4955412;28;40724;-75
2022/05/17 07:04:13;;;;;;;5.67;3.50;;;;;;;24.13;54.99;99434.22;4972892;28;42725;-77
2022/05/17 07:06:41;;;;;;;3.53;3.23;;;;;;;24.24;55.10;99432.06;4972815;28;42341;-76
2022/05/17 07:09:12;;;;;;;5.30;2.83;;;;;;;24.33;53.93;99424.81;4976809;28;39625;-76
2022/05/17 07:14:24;;;;;;;3.33;2.97;;;;;;;25.59;50.72;99444.84;4992832;28;43763;-75
2022/05/17 07:16:52;;;;;;;5.80;3.40;;;;;;;25.97;50.10;99454.78;4993324;28;42611;-75
2022/05/17 07:19:19;;;;;;;4.23;2.97;;;;;;;26.16;49.79;99448.06;4993077;28;40929;-78
2022/05/17 07:21:47;;;;;;;5.37;3.97;;;;;;;26.24;47.95;99436.28;4993165;28;41548;-76
2022/05/17 07:24:19;;;;;;;3.83;3.10;;;;;;;26.77;47.71;99457.91;4992084;28;43234;-77
2022/05/17 07:26:47;;;;;;;4.53;3.40;;;;;;;27.14;46.77;99464.34;4975065;28;42244;-76
2022/05/17 07:29:14;;;;;;;3.97;3.00;;;;;;;27.72;45.89;99473.53;4991131;28;39433;-77
2022/05/17 07:31:42;;;;;;;3.37;2.80;;;;;;;28.24;44.21;99467.84;4992062;28;42336;-79
2022/05/17 07:34:09;;;;;;;5.53;3.27;;;;;;;28.29;43.96;99465.41;4974788;28;42764;-72
2022/05/17 07:36:37;;;;;;;4.10;3.27;;;;;;;28.33;43.98;99488.47;4974055;28;40956;-76
2022/05/17 07:39:04;;;;;;;3.83;3.13;;;;;;;28.67;42.26;99487.78;4991192;28;39908;-74
2022/05/17 07:41:34;;;;;;;3.17;2.87;;;;;;;29.28;41.23;99493.50;4991916;28;42569;-76
2022/05/17 07:44:02;;;;;;;4.27;3.00;;;;;;;30.15;41.15;99493.72;4974570;28;43032;-77
2022/05/17 07:46:30;;;;;;;4.20;2.90;;;;;;;29.89;40.47;99497.19;4990161;28;43009;-77
2022/05/17 07:48:58;;;;;;;4.53;2.70;;;;;;;29.10;40.94;99487.69;4975069;28;40127;-74
2022/05/17 07:51:25;;;;;;;3.27;2.43;;;;;;;28.88;41.30;99487.75;4974254;28;41884;-76
2022/05/17 07:53:53;;;;;;;2.60;2.30;;;;;;;29.16;41.21;99485.03;4992753;28;43921;-75
2022/05/17 07:56:21;;;;;;;4.97;3.60;;;;;;;29.28;40.60;99493.50;4990070;28;43775;-77
2022/05/17 07:58:50;;;;;;;4.80;3.63;;;;;;;29.39;40.04;99501.16;4992588;28;39824;-78
2022/05/17 08:01:18;;;;;;;4.50;3.37;;;;;;;29.67;39.31;99501.91;4991682;28;41798;-78
2022/05/17 08:03:45;;;;;;;4.33;2.97;;;;;;;29.96;38.52;99508.16;4992310;28;43557;-78
2022/05/17 08:06:13;;;;;;;4.40;3.43;;;;;;;30.18;38.90;99509.69;4990296;28;42546;-77
2022/05/17 08:08:41;;;;;;;4.40;3.30;;;;;;;30.32;38.92;99505.94;4992358;28;41017;-76
2022/05/17 08:11:08;;;;;;;3.43;2.63;;;;;;;30.54;38.24;99505.81;4991766;28;42575;-84
2022/05/17 08:13:36;;;;;;;3.73;2.43;;;;;;;30.72;38.01;99511.50;4975086;28;42908;-77
2022/05/17 08:16:05;;;;;;;3.43;2.60;;;;;;;31.10;37.43;99510.88;4990267;28;41186;-76
2022/05/17 08:18:34;;;;;;;3.83;2.90;;;;;;;31.41;36.85;99517.34;4974760;28;39284;-78
2022/05/17 08:21:02;;;;;;;4.83;3.37;;;;;;;31.69;35.96;99522.56;4990209;28;41697;-78
2022/05/17 08:23:29;;;;;;;3.30;3.00;;;;;;;32.15;35.13;99516.03;4990825;28;41681;-77
2022/05/17 08:28:41;;;;;;;4.90;3.20;;;;;;;33.51;31.77;99549.22;4990695;28;39023;-77
2022/05/17 08:31:11;;;;;;;4.07;3.10;;;;;;;34.23;31.37;99555.81;4991433;28;41926;-79
2022/05/17 08:33:38;;;;;;;3.13;2.80;;;;;;;34.86;31.12;99552.63;4975401;28;41711;-80
2022/05/17 08:36:09;;;;;;;3.83;3.23;;;;;;;35.31;28.96;99565.88;4990510;28;43332;-80
2022/05/17 08:38:40;;;;;;;2.77;2.23;;;;;;;36.35;28.45;99573.19;4992114;28;40048;-79
2022/05/17 08:41:12;;;;;;;3.50;2.57;;;;;;;36.31;27.77;99583.88;4974738;28;42018;-79
2022/05/17 08:43:50;;;;;;;3.60;2.63;;;;;;;36.30;27.71;99573.06;4989882;28;42899;-78
2022/05/17 08:46:46;;;;;;;3.17;2.87;;;;;;;36.75;27.08;99577.81;4990614;28;42567;-79
2022/05/17 08:49:19;;;;;;;2.60;2.40;;;;;;;35.80;27.87;99575.56;4988705;28;39941;-75
2022/05/17 08:51:51;;;;;;;3.70;2.73;;;;;;;35.02;29.08;99554.66;4991121;28;41962;-75
2022/05/17 08:54:22;;;;;;;4.43;3.17;;;;;;;35.09;28.43;99569.19;4989605;28;42971;-76
2022/05/17 08:56:54;;;;;;;4.33;2.83;;;;;;;35.06;28.71;99558.63;4974565;28;41273;-79
2022/05/17 08:59:24;;;;;;;2.67;2.37;;;;;;;34.74;29.09;99566.34;4989544;28;40378;-75
2022/05/17 09:02:02;;;;;;;3.33;3.03;;;;;;;34.27;28.56;99565.28;4991076;28;42665;-78
2022/05/17 09:04:49;;;;;;;3.30;2.97;;;;;;;33.89;30.10;99554.53;4988680;28;43130;-78
2022/05/17 09:07:23;;;;;;;3.27;2.93;;;;;;;33.78;30.87;99516.84;4951513;28;41397;-77
2022/05/17 09:10:01;;;;;;;3.47;3.10;;;;;;;33.85;31.41;99534.09;4953861;28;39982;-76
2022/05/17 09:12:38;;;;;;;3.73;2.90;;;;;;;33.95;30.25;99533.56;4990190;28;41330;-75
2022/05/17 09:15:08;;;;;;;2.97;2.70;;;;;;;33.77;30.82;99504.16;4988231;28;44183;-74
2022/05/17 09:17:37;;;;;;;3.47;3.17;;;;;;;34.29;29.76;99535.66;4990209;28;41300;-75
2022/05/17 09:20:08;;;;;;;3.13;2.70;;;;;;;34.49;29.07;99551.91;4989773;28;39045;-78
2022/05/17 09:22:36;;;;;;;3.33;3.03;;;;;;;34.02;29.33;99545.28;4991774;28;42415;-76
2022/05/17 09:25:15;;;;;;;3.40;2.90;;;;;;;33.45;30.22;99544.66;4985807;28;43428;-78
2022/05/17 09:27:46;;;;;;;6.23;3.13;;;;;;;32.74;30.88;99534.09;4955077;28;41528;-77
2022/05/17 09:30:29;;;;;;;3.20;2.90;;;;;;;32.06;32.40;99523.69;4974622;28;41986;-75
2022/05/17 09:33:04;;;;;;;3.00;2.70;;;;;;;31.40;32.86;99523.06;4989336;28;42470;-80
2022/05/17 09:35:32;;;;;;;2.90;2.60;;;;;;;30.89;33.46;99514.66;4988790;28;43960;-77
2022/05/17 09:38:04;;;;;;;3.83;2.20;;;;;;;31.26;33.33;99511.28;4991734;28;43288;-75
2022/05/17 09:40:36;;;;;;;2.60;2.20;;;;;;;31.94;31.43;99530.06;4990054;28;40015;-78
2022/05/17 09:43:07;;;;;;;2.60;2.40;;;;;;;32.12;31.03;99538.41;4987798;28;41960;-78
2022/05/17 09:45:49;;;;;;;4.73;2.27;;;;;;;33.38;30.21;99539.22;4962558;28;42015;-78
2022/05/17 09:52:32;;;;;;;3.00;2.40;;;;;;;33.36;30.21;99543.28;4949933;28;42193;-78
2022/05/17 09:54:29;;;;;;;3.33;2.47;;;;;;;32.71;31.52;99529.88;4991003;28;41831;-78
2022/05/17 09:57:12;;;;;;;3.17;2.37;;;;;;;33.06;30.39;99535.72;4988773;28;43791;-81
2022/05/17 09:59:40;;;;;;;4.30;2.93;;;;;;;33.50;30.47;99523.69;4990953;28;43251;-75
2022/05/17 10:02:32;;;;;;;4.50;2.70;;;;;;;34.12;29.30;99534.63;4992368;28;39426;-77
2022/05/17 10:05:11;;;;;;;2.50;2.30;;;;;;;34.75;27.94;99545.13;4991850;28;41883;-74
2022/05/17 10:07:40;;;;;;;2.43;2.20;;;;;;;34.79;27.82;99552.72;4990939;28;44071;-75
2022/05/17 10:10:10;;;;;;;5.00;2.40;;;;;;;35.15;28.26;99543.44;4993188;28;43259;-75
2022/05/17 10:12:39;;;;;;;2.87;2.53;;;;;;;35.98;26.34;99551.41;4992889;28;39143;-74
2022/05/17 10:15:12;;;;;;;2.60;2.40;;;;;;;37.18;26.09;99555.94;4989615;28;41853;-75
2022/05/17 10:17:49;;;;;;;7.17;2.70;;;;;;;36.59;25.49;99558.19;4990960;28;42809;-75
2022/05/17 10:20:23;;;;;;;2.93;1.97;;;;;;;35.50;26.90;99548.13;4984696;28;43300;-73
2022/05/17 10:22:59;;;;;;;1.87;1.77;;;;;;;34.19;27.94;99535.34;4973136;28;41342;-73
2022/05/17 10:25:33;;;;;;;2.20;2.00;;;;;;;34.24;29.66;99514.34;4978357;28;41789;-76
2022/05/17 10:28:07;;;;;;;2.10;1.90;;;;;;;35.02;28.76;99516.13;4990646;28;43577;-78
2022/05/17 10:30:45;;;;;;;2.60;2.40;;;;;;;34.94;28.43;99522.00;4991213;28;42545;-78
2022/05/17 10:33:18;;;;;;;2.50;2.30;;;;;;;35.39;27.99;99529.69;4977582;28;40139;-79
2022/05/17 10:35:50;;;;;;;3.73;2.67;;;;;;;35.61;27.79;99526.06;4976080;28;41711;-77
2022/05/17 10:38:21;;;;;;;2.47;2.13;;;;;;;34.86;27.26;99514.94;4977061;28;42786;-78
2022/05/17 10:40:51;;;;;;;2.33;2.10;;;;;;;35.10;28.44;99525.97;4991330;28;42143;-77
2022/05/17 10:43:25;;;;;;;2.60;2.23;;;;;;;35.49;27.96;99524.41;4993400;28;39947;-77
2022/05/17 10:46:00;;;;;;;2.57;2.10;;;;;;;35.59;28.14;99521.91;4992476;28;41977;-78
2022/05/17 10:48:46;;;;;;;2.30;2.10;;;;;;;35.81;28.33;99517.44;4991821;28;44269;-78
2022/05/17 10:51:23;;;;;;;3.43;2.37;;;;;;;36.62;27.07;99523.72;4992561;28;42228;-78
2022/05/17 10:54:03;;;;;;;2.70;2.22;;;;;;;37.30;24.51;99548.41;4976284;28;38986;-78
2022/05/17 10:56:41;;;;;;;2.88;2.22;;;;;;;37.38;25.29;99531.38;4991264;28;41721;-77
2022/05/17 10:59:21;;;;;;;2.67;2.10;;;;;;;37.36;25.63;99530.78;4991846;28;42909;-77
2022/05/17 11:02:00;;;;;;;2.25;1.75;;;;;;;37.50;25.77;99522.13;4981290;28;41059;-77
2022/05/17 11:05:07;;;;;;;2.33;2.05;;;;;;;37.55;25.03;99534.13;4954642;28;39647;-77
2022/05/17 11:07:48;;;;;;;2.60;2.28;;;;;;;37.34;24.00;99538.50;4934513;28;42207;-79
2022/05/17 11:10:30;;;;;;;3.03;2.10;;;;;;;37.37;25.17;99526.94;4946554;28;41791;-78
2022/05/17 11:13:10;;;;;;;2.43;1.90;;;;;;;37.36;26.01;99525.25;4989035;28;43204;-78
2022/05/17 11:15:45;;;;;;;2.53;2.13;;;;;;;37.42;25.56;99517.06;4989680;28;40625;-77
2022/05/17 11:18:20;;;;;;;2.40;2.20;;;;;;;37.36;25.34;99502.31;4975843;28;40543;-75
2022/05/17 11:20:53;;;;;;;1.95;1.85;;;;;;;36.75;25.01;99514.31;4989828;28;43763;-78
2022/05/17 11:23:45;;;;;;;3.60;2.50;;;;;;;36.56;27.47;99494.38;4975411;28;43334;-79
2022/05/17 11:27:06;;;;;;;3.07;2.40;;;;;;;36.39;26.81;99497.09;4990834;28;40275;-77
2022/05/17 11:29:57;;;;;;;3.20;2.50;;;;;;;35.53;26.76;99498.03;4917095;29;41823;-79
2022/05/17 11:32:28;;;;;;;3.17;2.10;;;;;;;34.90;27.52;99487.75;4986376;28;41903;-77
2022/05/17 11:34:57;;;;;;;2.90;2.33;;;;;;;34.40;29.05;99477.09;4991267;28;42966;-78
2022/05/17 11:37:47;;;;;;;2.00;1.80;;;;;;;34.90;30.07;99461.06;4992279;28;41138;-77
2022/05/17 11:40:56;;;;;;;2.00;1.80;;;;;;;35.98;26.48;99489.91;4989646;28;42857;-76
2022/05/17 11:43:43;;;;;;;1.80;1.70;;;;;;;37.40;23.79;99509.84;4958885;28;43171;-78
2022/05/17 11:46:52;;;;;;;2.10;1.67;;;;;;;37.75;24.27;99501.22;4970719;28;41991;-77
2022/05/17 11:49:32;;;;;;;3.00;1.80;;;;;;;37.69;24.38;99501.44;4958363;28;40822;-77
2022/05/17 11:52:27;;;;;;;3.70;2.03;;;;;;;36.95;23.42;99506.38;4963779;28;41067;-79
2022/05/17 11:54:56;;;;;;;2.13;1.77;;;;;;;36.19;25.34;99485.66;4954176;28;42102;-77
2022/05/17 11:58:03;;;;;;;2.53;2.33;;;;;;;37.16;25.47;99480.78;4970908;28;42565;-75
2022/05/17 12:00:47;;;;;;;2.30;1.80;;;;;;;39.94;22.78;99489.31;4976792;28;39989;-75
2022/05/17 12:03:53;;;;;;;2.40;1.83;;;;;;;38.63;22.93;99496.44;4956061;28;42713;-77